sensor_id;sensor_type;location;lat;lon;timestamp;P1;durP1;ratioP1;P2;durP2;ratioP2
11000;SDS011;5553;48.506;8.870;2022-10-31T09:11:26;8.60;;;4.83;;
11000;SDS011;5553;48.506;8.870;2022-10-31T09:13:54;5.93;;;4.30;;
11000;SDS011;5553;48.506;8.870;2022-10-31T09:16:23;6.87;;;4.20;;
11000;SDS011;5553;48.506;8.870;2022-10-31T09:18:51;6.97;;;4.47;;
11000;SDS011;5553;48.506;8.870;2022-10-31T09:21:19;6.83;;;4.50;;
11000;SDS011;5553;48.506;8.870;2022-10-31T09:23:48;7.60;;;4.07;;
11000;SDS011;5553;48.506;8.870;2022-10-31T09:26:18;7.40;;;3.80;;
11000;SDS011;5553;48.506;8.870;2022-10-31T09:28:49;8.37;;;5.00;;
11000;SDS011;5553;48.506;8.870;2022-10-31T09:31:18;6.50;;;4.43;;
11000;SDS011;5553;48.506;8.870;2022-10-31T09:33:46;9.03;;;5.13;;
11000;SDS011;5553;48.506;8.870;2022-10-31T09:36:14;7.60;;;4.10;;
11000;SDS011;5553;48.506;8.870;2022-10-31T09:38:43;6.73;;;4.40;;
11000;SDS011;5553;48.506;8.870;2022-10-31T09:41:14;11.03;;;4.90;;
11000;SDS011;5553;48.506;8.870;2022-10-31T09:43:55;9.63;;;4.40;;
11000;SDS011;5553;48.506;8.870;2022-10-31T09:46:31;7.87;;;4.60;;
11000;SDS011;5553;48.506;8.870;2022-10-31T09:49:24;7.47;;;3.90;;
11000;SDS011;5553;48.506;8.870;2022-10-31T09:52:03;11.47;;;4.70;;
11000;SDS011;5553;48.506;8.870;2022-10-31T09:54:38;7.90;;;4.57;;
11000;SDS011;5553;48.506;8.870;2022-10-31T09:57:10;7.83;;;5.53;;
11000;SDS011;5553;48.506;8.870;2022-10-31T09:59:45;9.23;;;5.07;;
11000;SDS011;5553;48.506;8.870;2022-10-31T10:02:16;6.83;;;4.53;;
11000;SDS011;5553;48.506;8.870;2022-10-31T10:04:53;7.83;;;5.20;;
11000;SDS011;5553;48.506;8.870;2022-10-31T10:07:29;9.07;;;4.80;;
11000;SDS011;5553;48.506;8.870;2022-10-31T10:10:10;9.93;;;4.80;;
11000;SDS011;5553;48.506;8.870;2022-10-31T10:13:02;6.50;;;5.37;;
11000;SDS011;5553;48.506;8.870;2022-10-31T10:15:51;7.27;;;4.80;;
11000;SDS011;5553;48.506;8.870;2022-10-31T10:18:32;9.83;;;4.43;;
11000;SDS011;5553;48.506;8.870;2022-10-31T10:21:12;11.20;;;4.37;;
11000;SDS011;5553;48.506;8.870;2022-10-31T10:23:54;10.77;;;4.70;;
11000;SDS011;5553;48.506;8.870;2022-10-31T10:26:34;7.90;;;5.60;;
11000;SDS011;5553;48.506;8.870;2022-10-31T10:29:10;5.57;;;5.07;;
11000;SDS011;5553;48.506;8.870;2022-10-31T10:31:53;8.43;;;4.43;;
11000;SDS011;5553;48.506;8.870;2022-10-31T10:34:26;11.10;;;5.10;;
11000;SDS011;5553;48.506;8.870;2022-10-31T10:36:58;7.37;;;4.33;;
11000;SDS011;5553;48.506;8.870;2022-10-31T10:39:32;6.03;;;4.30;;
11000;SDS011;5553;48.506;8.870;2022-10-31T10:42:07;7.23;;;4.90;;
11000;SDS011;5553;48.506;8.870;2022-10-31T10:44:51;7.93;;;4.90;;
11000;SDS011;5553;48.506;8.870;2022-10-31T10:47:36;10.43;;;5.30;;
11000;SDS011;5553;48.506;8.870;2022-10-31T10:50:11;7.57;;;4.77;;
11000;SDS011;5553;48.506;8.870;2022-10-31T10:52:46;7.97;;;4.23;;
11000;SDS011;5553;48.506;8.870;2022-10-31T10:55:26;7.80;;;4.93;;
11000;SDS011;5553;48.506;8.870;2022-10-31T10:58:03;9.67;;;4.67;;
11000;SDS011;5553;48.506;8.870;2022-10-31T11:00:36;11.83;;;5.23;;
11000;SDS011;5553;48.506;8.870;2022-10-31T11:03:10;9.93;;;5.07;;
11000;SDS011;5553;48.506;8.870;2022-10-31T11:05:39;9.23;;;4.80;;
11000;SDS011;5553;48.506;8.870;2022-10-31T11:08:23;11.23;;;5.40;;
11000;SDS011;5553;48.506;8.870;2022-10-31T11:10:56;9.60;;;5.00;;
11000;SDS011;5553;48.506;8.870;2022-10-31T11:13:27;6.90;;;4.67;;
11000;SDS011;5553;48.506;8.870;2022-10-31T11:15:57;12.10;;;5.63;;
11000;SDS011;5553;48.506;8.870;2022-10-31T11:18:31;10.27;;;5.53;;
11000;SDS011;5553;48.506;8.870;2022-10-31T11:21:02;12.33;;;5.10;;
11000;SDS011;5553;48.506;8.870;2022-10-31T11:23:32;12.10;;;5.20;;
11000;SDS011;5553;48.506;8.870;2022-10-31T11:26:01;9.33;;;5.00;;
11000;SDS011;5553;48.506;8.870;2022-10-31T11:28:32;7.70;;;4.30;;
11000;SDS011;5553;48.506;8.870;2022-10-31T11:31:05;6.63;;;4.57;;
11000;SDS011;5553;48.506;8.870;2022-10-31T11:33:38;6.90;;;4.10;;
11000;SDS011;5553;48.506;8.870;2022-10-31T11:36:14;9.40;;;5.10;;
11000;SDS011;5553;48.506;8.870;2022-10-31T11:38:48;8.13;;;4.77;;
11000;SDS011;5553;48.506;8.870;2022-10-31T11:41:17;7.40;;;4.60;;
11000;SDS011;5553;48.506;8.870;2022-10-31T11:43:51;10.30;;;4.93;;
11000;SDS011;5553;48.506;8.870;2022-10-31T11:46:24;5.50;;;4.33;;
11000;SDS011;5553;48.506;8.870;2022-10-31T11:49:00;6.37;;;4.70;;
11000;SDS011;5553;48.506;8.870;2022-10-31T11:51:31;10.80;;;5.17;;
11000;SDS011;5553;48.506;8.870;2022-10-31T11:54:02;7.03;;;4.60;;
11000;SDS011;5553;48.506;8.870;2022-10-31T11:56:38;8.73;;;5.37;;
11000;SDS011;5553;48.506;8.870;2022-10-31T11:59:15;6.03;;;4.37;;
11000;SDS011;5553;48.506;8.870;2022-10-31T12:01:47;5.67;;;4.40;;
11000;SDS011;5553;48.506;8.870;2022-10-31T12:04:19;9.97;;;5.40;;
11000;SDS011;5553;48.506;8.870;2022-10-31T12:06:56;11.07;;;4.70;;
11000;SDS011;5553;48.506;8.870;2022-10-31T12:09:26;8.17;;;5.00;;
11000;SDS011;5553;48.506;8.870;2022-10-31T12:12:11;6.13;;;4.30;;
11000;SDS011;5553;48.506;8.870;2022-10-31T12:15:10;6.50;;;4.10;;
11000;SDS011;5553;48.506;8.870;2022-10-31T12:17:58;12.27;;;5.50;;
11000;SDS011;5553;48.506;8.870;2022-10-31T12:20:44;5.83;;;4.90;;
11000;SDS011;5553;48.506;8.870;2022-10-31T12:23:24;6.70;;;5.17;;
11000;SDS011;5553;48.506;8.870;2022-10-31T12:26:02;8.27;;;5.33;;
11000;SDS011;5553;48.506;8.870;2022-10-31T12:28:50;7.43;;;5.40;;
11000;SDS011;5553;48.506;8.870;2022-10-31T12:31:48;11.03;;;5.47;;
11000;SDS011;5553;48.506;8.870;2022-10-31T12:34:33;9.87;;;4.70;;
11000;SDS011;5553;48.506;8.870;2022-10-31T12:37:19;9.30;;;5.30;;
11000;SDS011;5553;48.506;8.870;2022-10-31T12:39:59;6.47;;;4.90;;
11000;SDS011;5553;48.506;8.870;2022-10-31T12:42:41;6.80;;;4.60;;
11000;SDS011;5553;48.506;8.870;2022-10-31T12:45:26;5.90;;;4.70;;
11000;SDS011;5553;48.506;8.870;2022-10-31T12:51:15;11.90;;;5.83;;
11000;SDS011;5553;48.506;8.870;2022-10-31T12:54:01;9.50;;;5.90;;
11000;SDS011;5553;48.506;8.870;2022-10-31T12:56:42;14.83;;;6.43;;
11000;SDS011;5553;48.506;8.870;2022-10-31T12:59:20;11.07;;;5.50;;
11000;SDS011;5553;48.506;8.870;2022-10-31T13:01:54;6.43;;;4.63;;
11000;SDS011;5553;48.506;8.870;2022-10-31T13:04:33;10.10;;;5.60;;
11000;SDS011;5553;48.506;8.870;2022-10-31T13:07:08;15.40;;;6.40;;
11000;SDS011;5553;48.506;8.870;2022-10-31T13:09:45;9.60;;;5.30;;
11000;SDS011;5553;48.506;8.870;2022-10-31T13:12:20;12.40;;;6.10;;
11000;SDS011;5553;48.506;8.870;2022-10-31T13:14:50;14.23;;;6.00;;
11000;SDS011;5553;48.506;8.870;2022-10-31T13:17:23;8.20;;;5.20;;
11000;SDS011;5553;48.506;8.870;2022-10-31T13:19:59;8.13;;;5.33;;
11000;SDS011;5553;48.506;8.870;2022-10-31T13:22:40;9.53;;;5.57;;
11000;SDS011;5553;48.506;8.870;2022-10-31T13:25:14;8.97;;;6.90;;
11000;SDS011;5553;48.506;8.870;2022-10-31T13:27:48;13.63;;;6.00;;
11000;SDS011;5553;48.506;8.870;2022-10-31T13:30:21;12.83;;;5.70;;
11000;SDS011;5553;48.506;8.870;2022-10-31T13:32:51;9.73;;;5.40;;
11000;SDS011;5553;48.506;8.870;2022-10-31T13:35:25;8.03;;;5.10;;
11000;SDS011;5553;48.506;8.870;2022-10-31T13:38:05;11.03;;;5.10;;
11000;SDS011;5553;48.506;8.870;2022-10-31T13:40:45;6.40;;;5.50;;
11000;SDS011;5553;48.506;8.870;2022-10-31T13:43:27;10.00;;;5.00;;
11000;SDS011;5553;48.506;8.870;2022-10-31T13:48:51;9.37;;;5.43;;
11000;SDS011;5553;48.506;8.870;2022-10-31T13:51:24;7.47;;;5.20;;
11000;SDS011;5553;48.506;8.870;2022-10-31T13:53:57;10.03;;;5.57;;
11000;SDS011;5553;48.506;8.870;2022-10-31T13:56:30;6.93;;;4.60;;
11000;SDS011;5553;48.506;8.870;2022-10-31T13:59:02;8.10;;;5.27;;
11000;SDS011;5553;48.506;8.870;2022-10-31T14:01:48;18.03;;;5.87;;
11000;SDS011;5553;48.506;8.870;2022-10-31T14:04:19;7.63;;;5.10;;
11000;SDS011;5553;48.506;8.870;2022-10-31T14:06:52;12.50;;;6.00;;
11000;SDS011;5553;48.506;8.870;2022-10-31T14:09:26;7.47;;;5.57;;
11000;SDS011;5553;48.506;8.870;2022-10-31T14:12:00;7.30;;;5.00;;
11000;SDS011;5553;48.506;8.870;2022-10-31T14:14:39;8.90;;;4.63;;
11000;SDS011;5553;48.506;8.870;2022-10-31T14:17:20;9.73;;;5.37;;
11000;SDS011;5553;48.506;8.870;2022-10-31T14:22:52;8.63;;;5.57;;
11000;SDS011;5553;48.506;8.870;2022-10-31T14:25:28;7.43;;;5.23;;
11000;SDS011;5553;48.506;8.870;2022-10-31T14:28:02;5.53;;;4.80;;
11000;SDS011;5553;48.506;8.870;2022-10-31T14:30:51;8.73;;;4.70;;
11000;SDS011;5553;48.506;8.870;2022-10-31T14:33:20;8.13;;;4.77;;
11000;SDS011;5553;48.506;8.870;2022-10-31T14:35:53;9.87;;;5.23;;
11000;SDS011;5553;48.506;8.870;2022-10-31T14:38:31;8.80;;;5.03;;
11000;SDS011;5553;48.506;8.870;2022-10-31T14:41:28;8.07;;;5.07;;
11000;SDS011;5553;48.506;8.870;2022-10-31T14:47:11;11.90;;;5.60;;
11000;SDS011;5553;48.506;8.870;2022-10-31T14:49:57;9.30;;;6.20;;
11000;SDS011;5553;48.506;8.870;2022-10-31T14:52:38;7.20;;;5.83;;
11000;SDS011;5553;48.506;8.870;2022-10-31T14:55:11;10.80;;;5.67;;
11000;SDS011;5553;48.506;8.870;2022-10-31T14:57:43;11.73;;;5.67;;
11000;SDS011;5553;48.506;8.870;2022-10-31T15:00:24;10.13;;;4.77;;
11000;SDS011;5553;48.506;8.870;2022-10-31T15:03:01;9.03;;;5.03;;
11000;SDS011;5553;48.506;8.870;2022-10-31T15:05:40;13.50;;;4.80;;
11000;SDS011;5553;48.506;8.870;2022-10-31T15:08:13;16.40;;;6.10;;
11000;SDS011;5553;48.506;8.870;2022-10-31T15:10:53;9.93;;;5.67;;
11000;SDS011;5553;48.506;8.870;2022-10-31T15:13:21;10.40;;;5.97;;
11000;SDS011;5553;48.506;8.870;2022-10-31T15:15:54;9.93;;;5.40;;
11000;SDS011;5553;48.506;8.870;2022-10-31T15:18:24;10.10;;;6.53;;
11000;SDS011;5553;48.506;8.870;2022-10-31T15:20:54;8.40;;;6.23;;
11000;SDS011;5553;48.506;8.870;2022-10-31T15:23:25;11.50;;;6.37;;
11000;SDS011;5553;48.506;8.870;2022-10-31T15:25:58;17.37;;;7.17;;
11000;SDS011;5553;48.506;8.870;2022-10-31T15:28:27;7.80;;;5.67;;
11000;SDS011;5553;48.506;8.870;2022-10-31T15:30:59;10.93;;;6.13;;
11000;SDS011;5553;48.506;8.870;2022-10-31T15:33:29;8.30;;;5.40;;
11000;SDS011;5553;48.506;8.870;2022-10-31T15:35:59;11.90;;;5.00;;
11000;SDS011;5553;48.506;8.870;2022-10-31T15:38:28;14.93;;;5.07;;
11000;SDS011;5553;48.506;8.870;2022-10-31T15:40:58;7.10;;;4.83;;
11000;SDS011;5553;48.506;8.870;2022-10-31T15:43:33;6.80;;;5.10;;
11000;SDS011;5553;48.506;8.870;2022-10-31T15:46:06;9.03;;;5.60;;
11000;SDS011;5553;48.506;8.870;2022-10-31T15:48:37;12.90;;;5.27;;
11000;SDS011;5553;48.506;8.870;2022-10-31T15:51:06;7.57;;;5.50;;
11000;SDS011;5553;48.506;8.870;2022-10-31T15:53:35;9.67;;;5.83;;
11000;SDS011;5553;48.506;8.870;2022-10-31T15:56:10;11.00;;;6.00;;
11000;SDS011;5553;48.506;8.870;2022-10-31T15:58:41;7.87;;;5.20;;
11000;SDS011;5553;48.506;8.870;2022-10-31T16:01:21;10.40;;;5.30;;
11000;SDS011;5553;48.506;8.870;2022-10-31T16:04:02;9.03;;;5.27;;
11000;SDS011;5553;48.506;8.870;2022-10-31T16:06:33;10.87;;;6.47;;
11000;SDS011;5553;48.506;8.870;2022-10-31T16:09:02;30.30;;;9.77;;
11000;SDS011;5553;48.506;8.870;2022-10-31T16:11:46;18.33;;;6.43;;
11000;SDS011;5553;48.506;8.870;2022-10-31T16:14:15;11.03;;;5.07;;
11000;SDS011;5553;48.506;8.870;2022-10-31T16:16:50;7.23;;;5.30;;
11000;SDS011;5553;48.506;8.870;2022-10-31T16:19:22;6.90;;;5.53;;
11000;SDS011;5553;48.506;8.870;2022-10-31T16:21:52;9.80;;;5.10;;
11000;SDS011;5553;48.506;8.870;2022-10-31T16:24:24;11.70;;;5.40;;
11000;SDS011;5553;48.506;8.870;2022-10-31T16:26:57;10.57;;;5.30;;
11000;SDS011;5553;48.506;8.870;2022-10-31T16:29:33;10.70;;;5.03;;
11000;SDS011;5553;48.506;8.870;2022-10-31T16:34:57;10.90;;;6.10;;
11000;SDS011;5553;48.506;8.870;2022-10-31T16:37:30;14.63;;;7.97;;
11000;SDS011;5553;48.506;8.870;2022-10-31T16:39:58;10.70;;;6.90;;
11000;SDS011;5553;48.506;8.870;2022-10-31T16:42:26;10.93;;;6.43;;
11000;SDS011;5553;48.506;8.870;2022-10-31T16:44:55;15.43;;;7.30;;
11000;SDS011;5553;48.506;8.870;2022-10-31T16:47:23;15.00;;;10.77;;
11000;SDS011;5553;48.506;8.870;2022-10-31T16:49:54;11.40;;;6.67;;
11000;SDS011;5553;48.506;8.870;2022-10-31T16:52:25;9.03;;;6.10;;
11000;SDS011;5553;48.506;8.870;2022-10-31T16:54:53;11.33;;;7.10;;
11000;SDS011;5553;48.506;8.870;2022-10-31T16:57:23;15.17;;;8.07;;
11000;SDS011;5553;48.506;8.870;2022-10-31T16:59:57;12.50;;;7.50;;
11000;SDS011;5553;48.506;8.870;2022-10-31T17:02:25;11.40;;;7.97;;
11000;SDS011;5553;48.506;8.870;2022-10-31T17:04:56;23.93;;;14.30;;
11000;SDS011;5553;48.506;8.870;2022-10-31T17:07:24;19.20;;;12.27;;
11000;SDS011;5553;48.506;8.870;2022-10-31T17:09:53;18.60;;;10.93;;
11000;SDS011;5553;48.506;8.870;2022-10-31T17:12:21;18.57;;;11.40;;
11000;SDS011;5553;48.506;8.870;2022-10-31T17:14:52;17.63;;;12.47;;
11000;SDS011;5553;48.506;8.870;2022-10-31T17:17:21;16.40;;;12.30;;
11000;SDS011;5553;48.506;8.870;2022-10-31T17:19:49;13.60;;;8.13;;
11000;SDS011;5553;48.506;8.870;2022-10-31T17:22:20;9.43;;;6.73;;
11000;SDS011;5553;48.506;8.870;2022-10-31T17:24:48;12.33;;;7.03;;
11000;SDS011;5553;48.506;8.870;2022-10-31T17:27:17;13.10;;;7.00;;
11000;SDS011;5553;48.506;8.870;2022-10-31T17:29:45;12.50;;;7.87;;
11000;SDS011;5553;48.506;8.870;2022-10-31T17:32:13;13.73;;;8.77;;
11000;SDS011;5553;48.506;8.870;2022-10-31T17:34:43;12.33;;;7.30;;
11000;SDS011;5553;48.506;8.870;2022-10-31T17:37:11;9.10;;;6.80;;
11000;SDS011;5553;48.506;8.870;2022-10-31T17:39:42;9.63;;;7.00;;
11000;SDS011;5553;48.506;8.870;2022-10-31T17:42:10;13.70;;;8.00;;
11000;SDS011;5553;48.506;8.870;2022-10-31T17:44:39;13.90;;;7.27;;
11000;SDS011;5553;48.506;8.870;2022-10-31T17:47:07;11.40;;;7.80;;
11000;SDS011;5553;48.506;8.870;2022-10-31T17:49:35;13.03;;;8.50;;
11000;SDS011;5553;48.506;8.870;2022-10-31T17:52:04;13.17;;;7.87;;
11000;SDS011;5553;48.506;8.870;2022-10-31T17:54:33;8.43;;;7.47;;
11000;SDS011;5553;48.506;8.870;2022-10-31T17:57:04;12.47;;;7.77;;
11000;SDS011;5553;48.506;8.870;2022-10-31T17:59:32;13.50;;;9.27;;
11000;SDS011;5553;48.506;8.870;2022-10-31T18:02:00;16.13;;;9.20;;
11000;SDS011;5553;48.506;8.870;2022-10-31T18:04:32;11.87;;;8.97;;
11000;SDS011;5553;48.506;8.870;2022-10-31T18:07:01;16.07;;;10.67;;
11000;SDS011;5553;48.506;8.870;2022-10-31T18:09:30;12.60;;;8.57;;
11000;SDS011;5553;48.506;8.870;2022-10-31T18:11:58;17.33;;;8.50;;
11000;SDS011;5553;48.506;8.870;2022-10-31T18:14:29;13.70;;;9.60;;
11000;SDS011;5553;48.506;8.870;2022-10-31T18:16:57;9.17;;;7.17;;
11000;SDS011;5553;48.506;8.870;2022-10-31T18:19:26;13.97;;;9.17;;
11000;SDS011;5553;48.506;8.870;2022-10-31T18:21:54;19.87;;;8.70;;
11000;SDS011;5553;48.506;8.870;2022-10-31T18:24:22;16.83;;;10.63;;
11000;SDS011;5553;48.506;8.870;2022-10-31T18:26:52;15.63;;;9.60;;
11000;SDS011;5553;48.506;8.870;2022-10-31T18:29:21;15.43;;;8.80;;
11000;SDS011;5553;48.506;8.870;2022-10-31T18:31:52;18.90;;;9.47;;
11000;SDS011;5553;48.506;8.870;2022-10-31T18:34:22;16.33;;;10.20;;
11000;SDS011;5553;48.506;8.870;2022-10-31T18:36:50;16.33;;;9.80;;
11000;SDS011;5553;48.506;8.870;2022-10-31T18:39:18;16.30;;;11.00;;
11000;SDS011;5553;48.506;8.870;2022-10-31T18:41:53;18.53;;;10.50;;
11000;SDS011;5553;48.506;8.870;2022-10-31T18:54:15;20.67;;;15.63;;
11000;SDS011;5553;48.506;8.870;2022-10-31T18:56:44;27.47;;;14.73;;
11000;SDS011;5553;48.506;8.870;2022-10-31T18:59:13;22.77;;;14.20;;
11000;SDS011;5553;48.506;8.870;2022-10-31T19:01:41;17.43;;;12.53;;
11000;SDS011;5553;48.506;8.870;2022-10-31T19:04:09;16.60;;;12.20;;
11000;SDS011;5553;48.506;8.870;2022-10-31T19:06:38;18.13;;;12.60;;
11000;SDS011;5553;48.506;8.870;2022-10-31T19:09:06;15.97;;;11.67;;
11000;SDS011;5553;48.506;8.870;2022-10-31T19:11:38;18.10;;;11.80;;
11000;SDS011;5553;48.506;8.870;2022-10-31T19:14:06;15.07;;;11.77;;
11000;SDS011;5553;48.506;8.870;2022-10-31T19:16:35;18.53;;;11.80;;
11000;SDS011;5553;48.506;8.870;2022-10-31T19:19:03;21.27;;;11.70;;
11000;SDS011;5553;48.506;8.870;2022-10-31T19:21:32;17.53;;;11.63;;
11000;SDS011;5553;48.506;8.870;2022-10-31T19:24:00;14.17;;;10.90;;
11000;SDS011;5553;48.506;8.870;2022-10-31T19:26:28;17.60;;;12.63;;
11000;SDS011;5553;48.506;8.870;2022-10-31T19:28:59;18.50;;;12.23;;
11000;SDS011;5553;48.506;8.870;2022-10-31T19:31:28;20.17;;;12.17;;
11000;SDS011;5553;48.506;8.870;2022-10-31T19:33:57;14.23;;;11.30;;
11000;SDS011;5553;48.506;8.870;2022-10-31T19:36:25;19.40;;;12.03;;
11000;SDS011;5553;48.506;8.870;2022-10-31T19:38:53;19.03;;;13.70;;
11000;SDS011;5553;48.506;8.870;2022-10-31T19:41:23;22.07;;;12.13;;
11000;SDS011;5553;48.506;8.870;2022-10-31T19:43:53;19.40;;;13.43;;
11000;SDS011;5553;48.506;8.870;2022-10-31T19:46:24;21.03;;;12.50;;
11000;SDS011;5553;48.506;8.870;2022-10-31T19:48:52;18.17;;;12.97;;
11000;SDS011;5553;48.506;8.870;2022-10-31T19:51:21;19.07;;;13.43;;
11000;SDS011;5553;48.506;8.870;2022-10-31T19:53:49;23.23;;;13.30;;
11000;SDS011;5553;48.506;8.870;2022-10-31T19:56:19;19.10;;;13.30;;
11000;SDS011;5553;48.506;8.870;2022-10-31T19:58:48;18.07;;;12.87;;
11000;SDS011;5553;48.506;8.870;2022-10-31T20:01:17;18.57;;;13.33;;
11000;SDS011;5553;48.506;8.870;2022-10-31T20:03:49;20.17;;;13.87;;
11000;SDS011;5553;48.506;8.870;2022-10-31T20:06:20;22.40;;;13.37;;
11000;SDS011;5553;48.506;8.870;2022-10-31T20:08:50;17.40;;;13.93;;
11000;SDS011;5553;48.506;8.870;2022-10-31T20:11:20;18.70;;;13.00;;
11000;SDS011;5553;48.506;8.870;2022-10-31T20:13:49;23.50;;;14.80;;
11000;SDS011;5553;48.506;8.870;2022-10-31T20:16:17;15.63;;;11.30;;
11000;SDS011;5553;48.506;8.870;2022-10-31T20:18:45;24.27;;;15.70;;
11000;SDS011;5553;48.506;8.870;2022-10-31T20:21:19;20.40;;;14.40;;
11000;SDS011;5553;48.506;8.870;2022-10-31T20:23:49;20.60;;;15.17;;
11000;SDS011;5553;48.506;8.870;2022-10-31T20:26:22;21.10;;;15.23;;
11000;SDS011;5553;48.506;8.870;2022-10-31T20:28:51;23.83;;;15.30;;
11000;SDS011;5553;48.506;8.870;2022-10-31T20:31:20;19.97;;;16.90;;
11000;SDS011;5553;48.506;8.870;2022-10-31T20:33:50;19.70;;;15.33;;
11000;SDS011;5553;48.506;8.870;2022-10-31T20:36:22;21.67;;;14.60;;
11000;SDS011;5553;48.506;8.870;2022-10-31T20:38:52;18.77;;;13.93;;
11000;SDS011;5553;48.506;8.870;2022-10-31T20:41:21;18.97;;;12.80;;
11000;SDS011;5553;48.506;8.870;2022-10-31T20:43:49;15.50;;;11.90;;
11000;SDS011;5553;48.506;8.870;2022-10-31T20:46:18;19.30;;;12.27;;
11000;SDS011;5553;48.506;8.870;2022-10-31T20:48:47;17.40;;;12.73;;
11000;SDS011;5553;48.506;8.870;2022-10-31T20:51:17;15.43;;;12.67;;
11000;SDS011;5553;48.506;8.870;2022-10-31T20:53:50;17.43;;;12.23;;
11000;SDS011;5553;48.506;8.870;2022-10-31T20:56:20;17.43;;;12.00;;
11000;SDS011;5553;48.506;8.870;2022-10-31T20:58:50;21.83;;;13.57;;
11000;SDS011;5553;48.506;8.870;2022-10-31T21:01:19;17.47;;;13.20;;
11000;SDS011;5553;48.506;8.870;2022-10-31T21:03:48;18.53;;;14.10;;
11000;SDS011;5553;48.506;8.870;2022-10-31T21:06:17;19.10;;;13.47;;
11000;SDS011;5553;48.506;8.870;2022-10-31T21:08:53;16.80;;;11.87;;
11000;SDS011;5553;48.506;8.870;2022-10-31T21:11:22;18.27;;;12.50;;
11000;SDS011;5553;48.506;8.870;2022-10-31T21:13:52;20.67;;;13.30;;
11000;SDS011;5553;48.506;8.870;2022-10-31T21:16:21;17.63;;;11.17;;
11000;SDS011;5553;48.506;8.870;2022-10-31T21:18:51;17.03;;;11.10;;
11000;SDS011;5553;48.506;8.870;2022-10-31T21:21:21;16.07;;;10.97;;
11000;SDS011;5553;48.506;8.870;2022-10-31T21:23:55;14.27;;;9.70;;
11000;SDS011;5553;48.506;8.870;2022-10-31T21:26:25;13.87;;;10.50;;
11000;SDS011;5553;48.506;8.870;2022-10-31T21:28:56;16.70;;;11.23;;
11000;SDS011;5553;48.506;8.870;2022-10-31T21:31:25;14.07;;;10.63;;
11000;SDS011;5553;48.506;8.870;2022-10-31T21:33:55;16.17;;;11.20;;
11000;SDS011;5553;48.506;8.870;2022-10-31T21:36:24;16.83;;;11.50;;
11000;SDS011;5553;48.506;8.870;2022-10-31T21:38:55;19.07;;;11.57;;
11000;SDS011;5553;48.506;8.870;2022-10-31T21:41:24;12.93;;;11.10;;
11000;SDS011;5553;48.506;8.870;2022-10-31T21:43:52;13.80;;;10.27;;
11000;SDS011;5553;48.506;8.870;2022-10-31T21:46:22;13.40;;;9.37;;
11000;SDS011;5553;48.506;8.870;2022-10-31T21:48:52;16.27;;;10.00;;
11000;SDS011;5553;48.506;8.870;2022-10-31T21:51:22;15.53;;;9.03;;
11000;SDS011;5553;48.506;8.870;2022-10-31T21:53:51;11.13;;;9.17;;
11000;SDS011;5553;48.506;8.870;2022-10-31T21:56:35;13.63;;;8.90;;
11000;SDS011;5553;48.506;8.870;2022-10-31T21:59:04;15.43;;;9.70;;
11000;SDS011;5553;48.506;8.870;2022-10-31T22:01:33;17.20;;;9.50;;
11000;SDS011;5553;48.506;8.870;2022-10-31T22:04:02;12.90;;;8.80;;
11000;SDS011;5553;48.506;8.870;2022-10-31T22:06:31;21.00;;;9.50;;
11000;SDS011;5553;48.506;8.870;2022-10-31T22:09:03;16.80;;;9.90;;
11000;SDS011;5553;48.506;8.870;2022-10-31T22:11:32;14.13;;;9.17;;
11000;SDS011;5553;48.506;8.870;2022-10-31T22:14:01;13.83;;;9.80;;
11000;SDS011;5553;48.506;8.870;2022-10-31T22:16:32;15.93;;;10.20;;
11000;SDS011;5553;48.506;8.870;2022-10-31T22:19:02;11.00;;;8.73;;
11000;SDS011;5553;48.506;8.870;2022-10-31T22:21:34;15.57;;;9.40;;
11000;SDS011;5553;48.506;8.870;2022-10-31T22:24:07;20.57;;;9.00;;
11000;SDS011;5553;48.506;8.870;2022-10-31T22:26:36;11.97;;;8.10;;
11000;SDS011;5553;48.506;8.870;2022-10-31T22:29:06;13.70;;;9.90;;
11000;SDS011;5553;48.506;8.870;2022-10-31T22:31:38;15.30;;;8.50;;
11000;SDS011;5553;48.506;8.870;2022-10-31T22:34:08;13.73;;;8.80;;
11000;SDS011;5553;48.506;8.870;2022-10-31T22:36:37;13.30;;;9.60;;
11000;SDS011;5553;48.506;8.870;2022-10-31T22:39:08;14.90;;;9.40;;
11000;SDS011;5553;48.506;8.870;2022-10-31T22:41:38;12.93;;;8.73;;
11000;SDS011;5553;48.506;8.870;2022-10-31T22:44:06;14.40;;;10.17;;
11000;SDS011;5553;48.506;8.870;2022-10-31T22:46:36;14.50;;;9.13;;
11000;SDS011;5553;48.506;8.870;2022-10-31T22:49:06;12.70;;;9.60;;
11000;SDS011;5553;48.506;8.870;2022-10-31T22:51:38;14.67;;;9.10;;
11000;SDS011;5553;48.506;8.870;2022-10-31T22:54:11;14.10;;;10.60;;
11000;SDS011;5553;48.506;8.870;2022-10-31T22:56:41;13.80;;;8.77;;
11000;SDS011;5553;48.506;8.870;2022-10-31T22:59:10;18.83;;;9.87;;
11000;SDS011;5553;48.506;8.870;2022-10-31T23:01:39;12.50;;;8.90;;
11000;SDS011;5553;48.506;8.870;2022-10-31T23:04:08;14.53;;;9.67;;
11000;SDS011;5553;48.506;8.870;2022-10-31T23:06:37;20.00;;;10.20;;
11000;SDS011;5553;48.506;8.870;2022-10-31T23:09:06;19.70;;;10.10;;
11000;SDS011;5553;48.506;8.870;2022-10-31T23:11:38;12.93;;;10.47;;
11000;SDS011;5553;48.506;8.870;2022-10-31T23:14:08;13.03;;;9.90;;
11000;SDS011;5553;48.506;8.870;2022-10-31T23:16:41;14.87;;;9.47;;
11000;SDS011;5553;48.506;8.870;2022-10-31T23:19:14;12.33;;;8.73;;
11000;SDS011;5553;48.506;8.870;2022-10-31T23:21:45;14.80;;;10.00;;
11000;SDS011;5553;48.506;8.870;2022-10-31T23:24:24;19.50;;;11.10;;
11000;SDS011;5553;48.506;8.870;2022-10-31T23:26:57;17.60;;;9.60;;
11000;SDS011;5553;48.506;8.870;2022-10-31T23:29:30;14.90;;;8.27;;
11000;SDS011;5553;48.506;8.870;2022-10-31T23:31:58;13.40;;;8.67;;
11000;SDS011;5553;48.506;8.870;2022-10-31T23:34:27;13.50;;;8.60;;
11000;SDS011;5553;48.506;8.870;2022-10-31T23:36:55;14.40;;;9.00;;
11000;SDS011;5553;48.506;8.870;2022-10-31T23:39:23;18.90;;;9.50;;
11000;SDS011;5553;48.506;8.870;2022-10-31T23:41:52;14.50;;;8.70;;
11000;SDS011;5553;48.506;8.870;2022-10-31T23:44:23;11.40;;;9.40;;
11000;SDS011;5553;48.506;8.870;2022-10-31T23:46:51;16.37;;;8.47;;
11000;SDS011;5553;48.506;8.870;2022-10-31T23:49:19;17.37;;;8.13;;
11000;SDS011;5553;48.506;8.870;2022-10-31T23:51:48;14.27;;;8.50;;
11000;SDS011;5553;48.506;8.870;2022-10-31T23:54:16;11.93;;;8.67;;
11000;SDS011;5553;48.506;8.870;2022-10-31T23:56:45;14.07;;;9.07;;
11000;SDS011;5553;48.506;8.870;2022-10-31T23:59:13;13.80;;;8.87;;
